Time;durP1;ratioP1;P1;durP2;ratioP2;P2;SDS_P1;SDS_P2;PMS_P1;PMS_P2;Temp;Humidity;BMP_temperature;BMP_pressure;BME280_temperature;BME280_humidity;BME280_pressure;Samples;Min_cycle;Max_cycle;Signal;HPM_P1;HPM_P2
2022/08/04 00:00:09;;;;;;;5.03;3.13;;;;;;;23.39;62.40;98288.19;4994159;28;20270;-62
2022/08/04 00:03:08;;;;;;;3.25;3.00;;;;;;;23.40;62.26;98287.19;4994312;28;20229;-62
2022/08/04 00:05:49;;;;;;;3.92;2.80;;;;;;;23.43;61.52;98289.47;4994237;28;20656;-62
2022/08/04 00:08:45;;;;;;;3.38;2.80;;;;;;;23.42;61.74;98279.91;4993981;28;20167;-61
2022/08/04 00:11:14;;;;;;;3.80;2.83;;;;;;;23.37;61.97;98283.09;4993742;28;20195;-61
2022/08/04 00:13:44;;;;;;;3.10;2.90;;;;;;;23.31;62.28;98283.84;4993796;28;20269;-61
2022/08/04 00:16:12;;;;;;;4.45;3.10;;;;;;;23.34;62.04;98287.94;4993795;28;20683;-61
2022/08/04 00:18:49;;;;;;;4.25;2.85;;;;;;;23.21;62.55;98279.88;4993934;28;20565;-61
2022/08/04 00:21:17;;;;;;;3.65;3.38;;;;;;;23.16;62.59;98263.75;4993795;28;20522;-62
2022/08/04 00:23:44;;;;;;;3.47;3.17;;;;;;;23.22;62.55;98281.53;4993565;28;20179;-62
2022/08/04 00:26:10;;;;;;;3.58;3.20;;;;;;;23.24;62.17;98276.88;4993860;28;20183;-62
2022/08/04 00:28:41;;;;;;;3.55;3.22;;;;;;;23.24;62.17;98280.31;4993594;28;20293;-62
2022/08/04 00:31:09;;;;;;;2.75;2.65;;;;;;;23.20;62.56;98275.63;4993479;28;20575;-62
2022/08/04 00:33:37;;;;;;;3.10;3.00;;;;;;;23.11;62.88;98274.06;4993225;28;20689;-61
2022/08/04 00:36:03;;;;;;;3.45;3.08;;;;;;;23.15;62.40;98283.25;4993387;28;20257;-62
2022/08/04 00:38:29;;;;;;;6.63;2.83;;;;;;;23.13;62.81;98280.78;4993429;28;20677;-61
2022/08/04 00:41:48;;;;;;;3.42;3.22;;;;;;;23.09;62.85;98276.06;4993618;28;20194;-61
2022/08/04 00:44:47;;;;;;;3.45;3.15;;;;;;;23.02;63.34;98280.47;4933386;29;20193;-61
2022/08/04 00:47:27;;;;;;;2.97;2.78;;;;;;;23.08;62.87;98285.81;4993164;28;20671;-61
2022/08/04 00:50:05;;;;;;;3.78;3.40;;;;;;;23.02;63.16;98283.91;4993508;28;20175;-61
2022/08/04 00:52:33;;;;;;;3.33;3.05;;;;;;;22.98;63.09;98289.75;4993346;28;20163;-61
2022/08/04 00:55:09;;;;;;;5.32;3.20;;;;;;;23.03;63.02;98287.38;4993343;28;20542;-62
2022/08/04 00:57:56;;;;;;;3.83;3.28;;;;;;;23.04;63.02;98294.28;4993194;28;20159;-61
2022/08/04 01:00:21;;;;;;;3.17;2.88;;;;;;;22.77;63.75;98285.25;4993028;28;20171;-61
2022/08/04 01:02:50;;;;;;;3.95;3.65;;;;;;;22.93;63.63;98302.69;4992973;28;20175;-61
2022/08/04 01:05:34;;;;;;;3.80;3.50;;;;;;;;;;4992866;28;20278;-61
2022/08/04 01:08:29;;;;;;;3.90;3.50;;;;;;;22.75;64.32;98295.16;4993122;28;20209;-62
2022/08/04 01:11:51;;;;;;;3.95;3.40;;;;;;;22.60;64.80;98301.47;4990960;28;20269;-62
2022/08/04 01:14:58;;;;;;;3.22;3.03;;;;;;;22.68;64.59;98302.16;4932949;29;20650;-61
2022/08/04 01:17:39;;;;;;;3.10;2.78;;;;;;;22.61;64.68;98295.97;4933150;29;20169;-61
2022/08/04 01:20:06;;;;;;;3.50;3.30;;;;;;;22.56;64.90;98294.91;4984053;28;20187;-61
2022/08/04 01:22:31;;;;;;;3.47;3.25;;;;;;;22.59;64.70;98294.53;4992974;28;20229;-61
2022/08/04 01:25:21;;;;;;;3.70;3.40;;;;;;;22.59;64.89;98292.72;4992747;28;20171;-61
2022/08/04 01:28:05;;;;;;;3.20;3.00;;;;;;;22.59;64.98;98302.44;4992684;28;20633;-61
2022/08/04 01:30:32;;;;;;;3.65;3.45;;;;;;;22.56;65.10;98302.81;4992620;28;20187;-61
2022/08/04 01:33:08;;;;;;;4.95;3.60;;;;;;;22.39;66.02;98304.81;4991209;28;20210;-61
2022/08/04 01:35:37;;;;;;;3.95;3.65;;;;;;;22.31;66.33;98304.06;4992622;28;20195;-61
2022/08/04 01:38:11;;;;;;;3.78;3.53;;;;;;;22.30;66.21;98308.50;4992523;28;20679;-61
2022/08/04 01:40:38;;;;;;;4.05;3.60;;;;;;;22.26;66.45;98299.31;4992709;28;20171;-61
2022/08/04 01:43:04;;;;;;;4.15;3.75;;;;;;;22.23;66.64;98299.69;4994978;28;20224;-61
2022/08/04 01:45:29;;;;;;;4.10;3.80;;;;;;;22.19;66.85;98301.03;4996554;28;20182;-61
2022/08/04 01:47:56;;;;;;;3.50;3.30;;;;;;;22.20;66.78;98299.22;4996518;28;20179;-61
2022/08/04 01:50:25;;;;;;;4.00;3.70;;;;;;;22.27;66.70;98303.59;4996684;28;20270;-61
2022/08/04 01:52:53;;;;;;;3.88;3.58;;;;;;;22.24;66.31;98300.50;4996699;28;20179;-61
2022/08/04 01:55:20;;;;;;;3.80;3.53;;;;;;;22.36;66.10;98299.88;4996588;28;20178;-61
2022/08/04 01:57:48;;;;;;;3.60;3.30;;;;;;;22.40;65.80;98302.97;4996755;28;20171;-62
2022/08/04 02:00:17;;;;;;;3.83;3.60;;;;;;;22.36;65.82;98299.03;4996552;28;20547;-61
2022/08/04 02:02:44;;;;;;;4.18;3.45;;;;;;;22.27;66.47;98297.50;4996537;28;20167;-61
2022/08/04 02:05:11;;;;;;;3.50;3.20;;;;;;;22.24;66.04;98295.22;4996117;28;20183;-62
2022/08/04 02:07:36;;;;;;;3.65;3.35;;;;;;;22.19;66.42;98294.94;4996165;28;20171;-61
2022/08/04 02:10:13;;;;;;;3.70;3.50;;;;;;;22.18;66.47;98288.03;4996038;28;20221;-61
2022/08/04 02:12:41;;;;;;;3.92;3.60;;;;;;;22.23;66.44;98301.50;4996151;28;20590;-62
2022/08/04 02:15:35;;;;;;;3.95;3.65;;;;;;;22.29;66.30;98300.78;4996003;28;20712;-61
2022/08/04 02:18:31;;;;;;;4.88;3.53;;;;;;;22.24;66.31;98293.41;4996204;28;20182;-62
2022/08/04 02:21:02;;;;;;;3.97;3.55;;;;;;;22.13;66.74;98290.38;4996067;28;20586;-61
2022/08/04 02:23:32;;;;;;;3.75;3.50;;;;;;;22.16;66.56;98295.31;4995835;28;20230;-62
2022/08/04 02:26:21;;;;;;;3.78;3.42;;;;;;;22.03;67.35;98303.03;4996023;28;20649;-62
2022/08/04 02:29:02;;;;;;;3.80;3.30;;;;;;;22.00;67.44;98298.94;4995813;28;20171;-61
2022/08/04 02:31:37;;;;;;;3.65;3.35;;;;;;;21.88;67.77;98304.81;4995702;28;20191;-61
2022/08/04 02:34:21;;;;;;;3.80;3.60;;;;;;;21.91;68.05;98297.34;4995639;28;20281;-61
2022/08/04 02:36:47;;;;;;;3.47;3.28;;;;;;;21.74;68.74;98295.06;4995852;28;20552;-61
2022/08/04 02:39:18;;;;;;;3.72;3.42;;;;;;;21.66;69.26;98301.16;4995542;28;20181;-61
2022/08/04 02:41:46;;;;;;;3.65;3.45;;;;;;;21.61;69.33;98300.06;4996085;28;20187;-61
2022/08/04 02:44:13;;;;;;;3.55;3.33;;;;;;;21.57;69.23;98293.50;4995778;28;20175;-61
2022/08/04 02:46:40;;;;;;;4.10;3.80;;;;;;;21.66;69.31;98308.25;4995451;28;20245;-61
2022/08/04 02:49:09;;;;;;;3.58;3.38;;;;;;;21.63;69.41;98305.97;4995381;28;20238;-61
2022/08/04 02:51:41;;;;;;;3.85;3.55;;;;;;;21.65;69.22;98303.97;4995325;28;20194;-61
2022/08/04 02:54:07;;;;;;;3.80;3.60;;;;;;;21.58;69.60;98303.03;4993973;28;20182;-61
2022/08/04 02:56:35;;;;;;;3.40;3.20;;;;;;;21.63;69.12;98313.88;4995256;28;20199;-61
2022/08/04 02:59:08;;;;;;;3.75;3.53;;;;;;;21.64;69.07;98307.59;4995179;28;20210;-61
2022/08/04 03:01:35;;;;;;;4.15;3.85;;;;;;;21.70;68.77;98315.66;4995529;28;20156;-61
2022/08/04 03:04:24;;;;;;;3.65;3.42;;;;;;;21.64;69.16;98310.25;4995415;28;20210;-61
2022/08/04 03:07:26;;;;;;;3.97;3.70;;;;;;;21.78;68.14;98312.13;4995180;28;20641;-61
2022/08/04 03:10:06;;;;;;;3.63;3.30;;;;;;;21.74;68.56;98310.84;4995204;28;20170;-61
2022/08/04 03:12:42;;;;;;;3.55;3.35;;;;;;;21.82;68.19;98316.06;4995580;28;20710;-61
2022/08/04 03:15:47;;;;;;;4.18;3.75;;;;;;;21.79;67.96;98314.59;4994992;28;20159;-61
2022/08/04 03:18:32;;;;;;;3.70;3.40;;;;;;;21.82;67.54;98316.88;4993398;28;20562;-61
2022/08/04 03:21:16;;;;;;;7.90;3.40;;;;;;;21.94;67.50;98322.53;4994895;28;20214;-61
2022/08/04 03:24:09;;;;;;;3.72;3.53;;;;;;;21.90;67.19;98318.59;4994781;28;20164;-61
2022/08/04 03:27:08;;;;;;;3.72;3.53;;;;;;;21.87;67.43;98318.97;4995141;28;20562;-61
2022/08/04 03:30:05;;;;;;;3.70;3.40;;;;;;;21.88;67.55;98310.06;4994850;28;20171;-62
2022/08/04 03:32:42;;;;;;;6.40;3.70;;;;;;;21.77;67.76;98313.13;4994605;28;20226;-61
2022/08/04 03:35:17;;;;;;;3.60;3.33;;;;;;;21.82;67.58;98310.78;4994619;28;20254;-62
2022/08/04 03:38:03;;;;;;;4.25;3.40;;;;;;;21.80;67.98;98312.78;4994538;28;20206;-62
2022/08/04 03:40:51;;;;;;;4.00;3.60;;;;;;;21.85;67.98;98318.34;4994778;28;20195;-61
2022/08/04 03:43:35;;;;;;;3.42;3.22;;;;;;;21.92;67.41;98311.38;4986484;28;20203;-63
2022/08/04 03:46:31;;;;;;;3.80;3.35;;;;;;;21.84;67.71;98322.78;4994645;28;20175;-62
2022/08/04 03:49:22;;;;;;;3.50;3.28;;;;;;;21.89;67.53;98319.59;4994499;28;20661;-62
2022/08/04 03:55:21;;;;;;;4.13;3.13;;;;;;;22.23;65.80;98317.31;4994589;28;20182;-61
2022/08/04 03:57:55;;;;;;;3.80;3.50;;;;;;;22.27;65.83;98305.41;4994227;28;20202;-62
2022/08/04 04:00:25;;;;;;;4.00;3.70;;;;;;;22.32;66.01;98310.97;4994233;28;20178;-62
2022/08/04 04:03:09;;;;;;;4.93;3.50;;;;;;;22.33;65.38;98310.78;4994050;28;20175;-61
2022/08/04 04:05:59;;;;;;;5.28;3.33;;;;;;;22.37;65.05;98314.69;4993685;28;20648;-61
2022/08/04 04:08:42;;;;;;;3.47;3.17;;;;;;;22.40;64.74;98310.88;4994107;28;20171;-61
2022/08/04 04:11:35;;;;;;;5.82;3.30;;;;;;;22.50;64.91;98312.25;4993995;28;20203;-61
2022/08/04 04:14:14;;;;;;;4.57;3.38;;;;;;;22.52;64.72;98309.44;4993936;28;20163;-61
2022/08/04 04:17:00;;;;;;;3.38;3.17;;;;;;;22.53;64.78;98301.38;4993896;28;20250;-61
2022/08/04 04:20:01;;;;;;;4.78;3.20;;;;;;;22.59;64.44;98302.44;4993864;28;20167;-62
2022/08/04 04:22:54;;;;;;;3.60;3.30;;;;;;;22.58;64.25;98300.81;4943349;28;20195;-61
2022/08/04 04:25:41;;;;;;;4.05;3.38;;;;;;;22.63;64.38;98309.00;4993828;28;20167;-62
2022/08/04 04:28:18;;;;;;;4.20;3.38;;;;;;;22.69;64.24;98303.81;4993878;28;20222;-62
2022/08/04 04:31:14;;;;;;;3.22;3.03;;;;;;;22.64;63.68;98308.00;4993464;28;20191;-61
2022/08/04 04:34:24;;;;;;;3.60;3.40;;;;;;;22.73;63.98;98309.53;4993609;28;20593;-61
2022/08/04 04:36:49;;;;;;;3.35;3.15;;;;;;;22.82;63.95;98319.81;4986475;28;20734;-61
2022/08/04 04:39:23;;;;;;;2.97;2.72;;;;;;;22.77;63.95;98327.47;4993645;28;20183;-61
2022/08/04 04:41:58;;;;;;;5.05;3.53;;;;;;;22.73;63.98;98325.38;5008441;28;20675;-61
2022/08/04 04:44:42;;;;;;;3.88;3.58;;;;;;;22.81;63.72;98326.09;4993247;28;20198;-61
2022/08/04 04:47:37;;;;;;;3.38;3.17;;;;;;;22.80;63.75;98337.66;4993479;28;20622;-61
2022/08/04 04:50:10;;;;;;;3.63;3.33;;;;;;;22.84;63.82;98332.84;4970354;28;20211;-61
2022/08/04 04:52:42;;;;;;;5.13;3.00;;;;;;;22.94;63.53;98339.44;4993325;28;20240;-62
2022/08/04 04:55:34;;;;;;;4.38;3.42;;;;;;;22.99;63.12;98337.06;4991904;28;20586;-62
2022/08/04 04:58:01;;;;;;;3.58;3.28;;;;;;;23.08;62.98;98340.44;4986709;28;20214;-61
2022/08/04 05:01:22;;;;;;;4.38;3.50;;;;;;;23.16;62.29;98332.41;4993026;28;20621;-61
2022/08/04 05:04:26;;;;;;;4.20;3.80;;;;;;;23.22;61.84;98331.69;4970504;28;20610;-62
2022/08/04 05:07:29;;;;;;;4.90;3.50;;;;;;;23.24;62.06;98346.34;4962744;28;20195;-61
2022/08/04 05:10:18;;;;;;;3.58;3.33;;;;;;;23.26;61.85;98341.69;4993105;28;20203;-61
2022/08/04 05:13:02;;;;;;;3.33;3.03;;;;;;;23.33;62.14;98347.03;4992993;28;20163;-61
2022/08/04 05:15:33;;;;;;;3.78;3.45;;;;;;;23.33;61.89;98344.41;4992861;28;20266;-62
2022/08/04 05:18:00;;;;;;;3.42;3.22;;;;;;;23.39;61.67;98349.78;4992115;28;20250;-61
2022/08/04 05:20:33;;;;;;;3.42;3.22;;;;;;;23.48;61.55;98343.34;4992712;28;20179;-61
2022/08/04 05:23:06;;;;;;;3.30;3.10;;;;;;;23.56;60.85;98334.50;4992559;28;20168;-61
2022/08/04 05:25:39;;;;;;;4.10;3.70;;;;;;;23.74;60.10;98360.28;4992889;28;20167;-61
2022/08/04 05:28:23;;;;;;;4.72;3.47;;;;;;;23.80;59.96;98353.44;4992655;28;20226;-61
2022/08/04 05:31:00;;;;;;;3.30;3.10;;;;;;;23.80;60.08;98359.53;4992735;28;20195;-61
2022/08/04 05:33:38;;;;;;;3.67;3.20;;;;;;;23.97;59.49;98348.72;4992490;28;20235;-61
2022/08/04 05:36:09;;;;;;;3.35;3.15;;;;;;;24.04;59.42;98340.66;4992721;28;20532;-62
2022/08/04 05:38:38;;;;;;;3.47;3.28;;;;;;;24.02;59.00;98353.25;4992659;28;20174;-63
2022/08/04 05:41:05;;;;;;;3.60;3.40;;;;;;;24.09;59.20;98346.19;4992710;28;20180;-61
2022/08/04 05:43:31;;;;;;;3.60;3.28;;;;;;;24.09;58.66;98338.25;4991249;28;20194;-60
2022/08/04 05:45:57;;;;;;;4.63;3.47;;;;;;;24.20;58.38;98345.66;4992451;28;20183;-61
2022/08/04 05:48:23;;;;;;;3.67;3.40;;;;;;;24.20;58.47;98337.75;4992743;28;20261;-61
2022/08/04 05:50:50;;;;;;;4.53;3.35;;;;;;;24.24;58.05;98336.34;4992346;28;20249;-60
2022/08/04 05:53:16;;;;;;;5.68;3.15;;;;;;;24.38;57.13;98340.72;4992676;28;20564;-60
2022/08/04 05:55:43;;;;;;;3.42;3.22;;;;;;;24.56;56.78;98351.63;4992304;28;20179;-60
2022/08/04 05:58:09;;;;;;;4.28;3.17;;;;;;;24.55;56.81;98354.47;4991138;28;20722;-61
2022/08/04 06:00:37;;;;;;;3.50;3.30;;;;;;;24.64;56.85;98353.31;4992374;28;20178;-60
2022/08/04 06:03:04;;;;;;;3.22;3.03;;;;;;;24.76;56.63;98357.06;4991164;28;20206;-61
2022/08/04 06:05:30;;;;;;;3.40;3.20;;;;;;;24.88;55.99;98347.56;5007425;28;20349;-61
2022/08/04 06:07:56;;;;;;;4.65;2.78;;;;;;;24.98;55.65;98351.50;4992004;28;20183;-61
2022/08/04 06:10:24;;;;;;;3.00;2.80;;;;;;;25.05;55.35;98356.78;4991805;28;20651;-61
2022/08/04 06:12:54;;;;;;;3.72;3.42;;;;;;;25.16;54.58;98359.72;4991940;28;20745;-61
2022/08/04 06:15:23;;;;;;;3.65;3.35;;;;;;;25.27;54.60;98364.47;4992480;28;20175;-62
2022/08/04 06:17:54;;;;;;;5.18;3.55;;;;;;;25.31;54.80;98347.16;4991632;28;20545;-61
2022/08/04 06:20:22;;;;;;;3.90;3.50;;;;;;;25.37;54.05;98356.94;4991654;28;20246;-62
2022/08/04 06:22:57;;;;;;;4.25;3.33;;;;;;;25.51;53.32;98353.34;4991349;28;20207;-62
2022/08/04 06:25:26;;;;;;;4.50;2.90;;;;;;;25.63;53.13;98356.19;4990766;28;20166;-62
2022/08/04 06:27:54;;;;;;;5.57;3.80;;;;;;;25.71;53.20;98351.53;4992063;28;20179;-62
2022/08/04 06:30:24;;;;;;;3.35;3.15;;;;;;;25.76;53.01;98346.44;4994758;28;20294;-61
2022/08/04 06:32:59;;;;;;;3.17;2.85;;;;;;;25.76;52.95;98351.75;4995562;28;20223;-61
2022/08/04 06:35:27;;;;;;;3.10;2.90;;;;;;;25.82;52.87;98353.59;4995698;28;20163;-62
2022/08/04 06:37:55;;;;;;;3.92;3.40;;;;;;;25.78;52.46;98355.00;4996233;28;20282;-62
2022/08/04 06:40:24;;;;;;;4.13;3.30;;;;;;;25.87;52.41;98352.97;4995551;28;20205;-61
2022/08/04 06:42:50;;;;;;;3.85;3.05;;;;;;;26.06;52.50;98360.19;4995571;28;20183;-61
2022/08/04 06:45:18;;;;;;;6.05;3.30;;;;;;;26.18;52.57;98362.00;4995741;28;20250;-61
2022/08/04 06:47:44;;;;;;;6.22;3.20;;;;;;;26.28;52.66;98349.16;4995730;28;20282;-61
2022/08/04 06:50:10;;;;;;;3.35;3.05;;;;;;;26.52;52.63;98353.81;4995610;28;20703;-61
2022/08/04 06:52:36;;;;;;;3.22;3.00;;;;;;;26.70;51.66;98358.53;4995664;28;20229;-62
2022/08/04 06:55:04;;;;;;;5.13;3.35;;;;;;;26.87;51.13;98367.66;4995397;28;20175;-62
2022/08/04 06:57:30;;;;;;;12.15;5.10;;;;;;;27.04;51.74;98364.31;4995274;28;20186;-63
2022/08/04 06:59:59;;;;;;;8.13;4.43;;;;;;;27.21;50.68;98365.53;4993951;28;20580;-62
2022/08/04 07:02:27;;;;;;;9.43;4.35;;;;;;;27.33;49.28;98363.84;4995242;28;20179;-62
2022/08/04 07:04:53;;;;;;;8.45;4.43;;;;;;;27.24;50.12;98359.78;4995154;28;20207;-62
2022/08/04 07:07:19;;;;;;;10.65;4.82;;;;;;;27.29;50.50;98357.28;4993867;28;20223;-62
2022/08/04 07:09:45;;;;;;;6.13;3.90;;;;;;;27.33;50.11;98344.41;4995106;28;20190;-62
2022/08/04 07:12:12;;;;;;;4.82;4.07;;;;;;;27.47;49.04;98349.44;4995185;28;20672;-62
2022/08/04 07:14:40;;;;;;;8.18;3.92;;;;;;;27.60;48.67;98353.88;4995005;28;20202;-62
2022/08/04 07:17:08;;;;;;;7.22;4.07;;;;;;;27.67;48.56;98355.47;4995266;28;20191;-62
2022/08/04 07:19:36;;;;;;;4.95;3.67;;;;;;;27.81;48.38;98359.69;4995161;28;20319;-62
2022/08/04 07:22:04;;;;;;;5.22;4.25;;;;;;;27.95;48.13;98353.25;4994806;28;20175;-62
2022/08/04 07:24:34;;;;;;;6.07;3.97;;;;;;;28.02;47.45;98346.03;4993900;28;20179;-62
2022/08/04 07:27:01;;;;;;;6.00;3.83;;;;;;;28.12;47.43;98358.84;4995282;28;20554;-62
2022/08/04 07:29:27;;;;;;;8.15;4.50;;;;;;;28.17;48.11;98351.84;4994721;28;20577;-62
2022/08/04 07:31:55;;;;;;;4.93;3.80;;;;;;;28.29;47.37;98362.59;4994456;28;20278;-62
2022/08/04 07:34:22;;;;;;;10.05;3.90;;;;;;;28.37;46.94;98352.53;4994832;28;20269;-62
2022/08/04 07:36:53;;;;;;;6.03;4.07;;;;;;;28.45;46.93;98354.91;4994856;28;20187;-63
2022/08/04 07:39:20;;;;;;;7.30;4.65;;;;;;;28.57;46.96;98358.47;4994596;28;20197;-63
2022/08/04 07:41:46;;;;;;;6.93;4.90;;;;;;;28.59;46.94;98361.75;4994111;28;20261;-62
2022/08/04 07:44:15;;;;;;;5.88;4.95;;;;;;;28.47;46.49;98358.19;4994850;28;20727;-62
2022/08/04 07:46:44;;;;;;;8.27;4.63;;;;;;;28.53;46.34;98356.47;4994378;28;20183;-62
2022/08/04 07:49:09;;;;;;;6.38;4.28;;;;;;;28.58;46.38;98370.75;4994414;28;20179;-62
2022/08/04 07:51:35;;;;;;;7.13;4.47;;;;;;;28.61;46.37;98366.81;4994258;28;20214;-62
2022/08/04 07:54:03;;;;;;;8.10;4.25;;;;;;;28.69;46.53;98367.34;4993009;28;20567;-62
2022/08/04 07:56:32;;;;;;;6.70;4.32;;;;;;;28.78;46.63;98370.56;4994519;28;20194;-62
2022/08/04 07:58:59;;;;;;;8.60;4.50;;;;;;;28.82;45.74;98361.09;4994401;28;20233;-62
2022/08/04 08:01:25;;;;;;;6.00;4.15;;;;;;;28.89;45.66;98367.97;4994100;28;20205;-63
2022/08/04 08:03:52;;;;;;;4.88;4.35;;;;;;;28.93;45.85;98369.16;4994093;28;20203;-62
2022/08/04 08:06:18;;;;;;;4.95;4.05;;;;;;;28.94;46.36;98381.47;4994062;28;20211;-62
2022/08/04 08:08:44;;;;;;;11.02;3.72;;;;;;;28.96;45.25;98376.75;4993979;28;20190;-62
2022/08/04 08:11:09;;;;;;;6.20;3.45;;;;;;;28.96;44.05;98368.75;4993846;28;20203;-62
2022/08/04 08:13:36;;;;;;;4.38;3.45;;;;;;;28.98;44.04;98365.88;4994142;28;20564;-62
2022/08/04 08:16:02;;;;;;;4.50;3.80;;;;;;;28.98;44.33;98366.66;4993995;28;20229;-63
2022/08/04 08:18:29;;;;;;;4.10;3.53;;;;;;;28.99;43.35;98362.16;4994556;28;20218;-63
2022/08/04 08:20:55;;;;;;;4.72;3.25;;;;;;;29.07;42.20;98367.19;4993775;28;20660;-62
2022/08/04 08:23:21;;;;;;;4.10;3.70;;;;;;;29.07;42.11;98364.53;4992358;28;20660;-62
2022/08/04 08:25:46;;;;;;;7.35;3.78;;;;;;;28.81;44.77;98354.13;4992256;28;20183;-63
2022/08/04 08:28:12;;;;;;;3.30;3.00;;;;;;;28.83;43.58;98347.56;4993567;28;20614;-62
2022/08/04 08:30:38;;;;;;;3.92;3.30;;;;;;;28.94;42.87;98359.31;4993466;28;20673;-62
2022/08/04 08:33:06;;;;;;;4.93;3.03;;;;;;;29.02;42.18;98356.38;4992182;28;20226;-62
2022/08/04 08:35:37;;;;;;;4.03;2.80;;;;;;;29.11;41.61;98360.38;4993556;28;20261;-63
2022/08/04 08:38:06;;;;;;;6.97;3.47;;;;;;;29.18;40.81;98351.28;4993510;28;20194;-62
2022/08/04 08:40:49;;;;;;;5.57;3.10;;;;;;;29.35;39.49;98360.28;4993352;28;20219;-63
2022/08/04 08:43:50;;;;;;;4.00;3.25;;;;;;;29.38;39.60;98357.16;4993543;28;20177;-63
2022/08/04 08:46:24;;;;;;;4.07;3.00;;;;;;;29.42;39.61;98353.00;4965491;28;20558;-62
2022/08/04 08:49:33;;;;;;;3.40;3.10;;;;;;;29.47;39.40;98355.81;4993290;28;20176;-62
2022/08/04 08:52:20;;;;;;;5.15;3.53;;;;;;;29.52;38.65;98355.94;4993279;28;20195;-63
2022/08/04 08:55:06;;;;;;;3.70;3.40;;;;;;;29.63;39.08;98357.88;4993478;28;20242;-62
2022/08/04 08:57:56;;;;;;;6.03;3.60;;;;;;;29.73;40.74;98344.78;4993428;28;20175;-62
2022/08/04 09:00:30;;;;;;;3.63;3.05;;;;;;;29.83;37.30;98350.38;4993212;28;20170;-62
2022/08/04 09:03:08;;;;;;;7.03;3.00;;;;;;;29.88;38.06;98347.03;4993207;28;20275;-62
2022/08/04 09:05:53;;;;;;;6.55;2.80;;;;;;;29.94;36.89;98354.13;4993028;28;20163;-63
2022/08/04 09:08:44;;;;;;;6.43;2.28;;;;;;;29.98;37.74;98344.63;4992969;28;20640;-63
2022/08/04 09:11:19;;;;;;;7.75;3.38;;;;;;;30.00;38.86;98330.00;4992952;28;20202;-63
2022/08/04 09:13:54;;;;;;;7.07;2.55;;;;;;;30.11;36.85;98344.44;4993366;28;20154;-62
2022/08/04 09:16:52;;;;;;;5.97;2.28;;;;;;;30.07;35.37;98341.38;4993133;28;20214;-62
2022/08/04 09:19:32;;;;;;;3.45;3.15;;;;;;;29.93;35.98;98345.31;4992792;28;20644;-61
2022/08/04 09:22:02;;;;;;;2.45;2.20;;;;;;;29.87;34.93;98340.06;4993342;28;20253;-61
2022/08/04 09:24:49;;;;;;;22.85;4.72;;;;;;;29.84;37.65;98325.34;4993180;28;20317;-61
2022/08/04 09:27:18;;;;;;;5.93;2.75;;;;;;;29.87;37.01;98327.56;4992954;28;20163;-61
2022/08/04 09:29:56;;;;;;;5.60;2.90;;;;;;;29.99;37.37;98328.38;4992963;28;20570;-61
2022/08/04 09:32:40;;;;;;;7.65;2.65;;;;;;;30.13;36.03;98324.47;4992763;28;20191;-61
2022/08/04 09:35:06;;;;;;;6.30;3.13;;;;;;;30.17;36.84;98324.81;4992905;28;20166;-61
2022/08/04 09:37:59;;;;;;;8.57;3.10;;;;;;;30.21;36.22;98326.78;4992620;28;20258;-61
2022/08/04 09:40:47;;;;;;;7.50;3.05;;;;;;;30.34;36.87;98320.44;4993174;28;20160;-62
2022/08/04 09:43:53;;;;;;;3.58;2.90;;;;;;;30.46;35.77;98323.91;4992867;28;20214;-61
2022/08/04 09:46:27;;;;;;;6.18;2.75;;;;;;;30.44;35.29;98326.00;4992745;28;20163;-61
2022/08/04 09:49:09;;;;;;;2.80;2.60;;;;;;;30.46;34.60;98319.38;4992903;28;20160;-61
2022/08/04 09:51:50;;;;;;;3.88;2.50;;;;;;;30.54;33.45;98320.91;4992348;28;20210;-62
2022/08/04 09:54:46;;;;;;;2.80;2.60;;;;;;;30.53;34.73;98320.06;4992705;28;20175;-61
2022/08/04 09:57:36;;;;;;;3.78;2.50;;;;;;;30.44;33.67;98304.63;4992405;28;20239;-62
2022/08/04 10:00:06;;;;;;;4.80;2.28;;;;;;;30.51;34.46;98311.50;4992690;28;20163;-61
2022/08/04 10:02:39;;;;;;;5.05;3.15;;;;;;;30.63;33.74;98309.63;4992429;28;20203;-63
2022/08/04 10:05:12;;;;;;;3.17;2.40;;;;;;;30.75;33.89;98312.28;4996498;28;20175;-61
2022/08/04 10:07:43;;;;;;;2.67;2.03;;;;;;;30.86;31.29;98314.94;4996507;28;20175;-62
2022/08/04 10:10:33;;;;;;;3.65;2.08;;;;;;;31.00;31.72;98316.31;4996158;28;20183;-61
2022/08/04 10:13:22;;;;;;;4.65;2.17;;;;;;;31.15;31.50;98313.13;4996550;28;20168;-62
2022/08/04 10:16:15;;;;;;;35.85;4.60;;;;;;;31.17;31.95;98309.16;4996535;28;20179;-62
2022/08/04 10:18:46;;;;;;;2.10;2.00;;;;;;;31.36;30.68;98309.81;4996349;28;20245;-61
2022/08/04 10:21:24;;;;;;;2.30;2.00;;;;;;;31.45;31.71;98297.66;4995991;28;20171;-61
2022/08/04 10:24:28;;;;;;;3.78;2.50;;;;;;;31.62;31.41;98318.06;4995929;28;20167;-61
2022/08/04 10:27:05;;;;;;;2.63;2.15;;;;;;;31.53;31.30;98300.78;4995822;28;20652;-61
2022/08/04 10:29:41;;;;;;;4.15;2.20;;;;;;;31.51;30.44;98300.22;4995895;28;20198;-61
2022/08/04 10:32:32;;;;;;;2.28;2.08;;;;;;;31.51;31.85;98292.19;4995763;28;20238;-61
2022/08/04 10:35:11;;;;;;;3.25;2.60;;;;;;;31.79;31.31;98296.69;4996009;28;20529;-61
2022/08/04 10:37:55;;;;;;;2.10;2.00;;;;;;;31.99;31.66;98299.72;4995715;28;20217;-61
2022/08/04 10:40:36;;;;;;;5.72;2.50;;;;;;;32.06;31.01;98289.66;4995969;28;20261;-61
2022/08/04 10:43:19;;;;;;;5.47;2.40;;;;;;;32.22;30.58;98294.16;4995848;28;20178;-61
2022/08/04 10:46:01;;;;;;;2.03;1.83;;;;;;;32.37;29.74;98283.72;4995602;28;20656;-61
2022/08/04 10:49:01;;;;;;;3.92;2.25;;;;;;;32.47;29.99;98286.53;4995562;28;20179;-62
2022/08/04 10:51:35;;;;;;;2.40;2.22;;;;;;;32.68;30.03;98283.88;4995779;28;20199;-62
2022/08/04 10:54:06;;;;;;;2.22;2.13;;;;;;;32.92;29.12;98284.47;4995843;28;20210;-62
2022/08/04 10:56:36;;;;;;;5.38;2.40;;;;;;;33.12;30.17;98285.53;4995402;28;20164;-62
2022/08/04 10:59:07;;;;;;;3.75;2.67;;;;;;;33.20;29.38;98286.94;4995252;28;20651;-63
2022/08/04 11:01:39;;;;;;;2.80;2.00;;;;;;;33.46;28.53;98286.97;4995287;28;20225;-62
2022/08/04 11:04:14;;;;;;;3.67;2.20;;;;;;;33.63;27.83;98287.69;4995444;28;20214;-62
2022/08/04 11:06:42;;;;;;;4.53;2.17;;;;;;;33.75;28.60;98282.97;4993925;28;20566;-62
2022/08/04 11:09:07;;;;;;;3.70;1.85;;;;;;;33.88;29.16;98290.66;4995107;28;20175;-62
2022/08/04 11:12:05;;;;;;;2.40;2.20;;;;;;;34.01;27.13;98276.78;4994975;28;20222;-62
2022/08/04 11:15:00;;;;;;;6.22;2.28;;;;;;;34.00;26.69;98277.84;4993462;28;20243;-62
2022/08/04 11:17:34;;;;;;;2.75;2.45;;;;;;;34.03;28.32;98265.78;5010148;28;20633;-62
2022/08/04 11:20:15;;;;;;;2.15;2.00;;;;;;;34.00;27.30;98264.41;4995253;28;20172;-63
2022/08/04 11:23:13;;;;;;;2.88;2.00;;;;;;;34.03;27.58;98261.19;4995086;28;20625;-63
2022/08/04 11:25:55;;;;;;;4.57;2.20;;;;;;;34.27;27.23;98262.47;4990480;28;20620;-62
2022/08/04 11:28:26;;;;;;;2.38;2.15;;;;;;;34.33;26.18;98258.72;4995098;28;20222;-62
2022/08/04 11:31:18;;;;;;;2.22;2.03;;;;;;;34.45;26.89;98267.41;4994786;28;20207;-62
2022/08/04 11:33:55;;;;;;;2.13;2.03;;;;;;;34.32;26.10;98259.00;4994559;28;20214;-63
2022/08/04 11:36:50;;;;;;;3.92;2.25;;;;;;;34.49;26.27;98262.31;4994666;28;20560;-63
2022/08/04 11:39:32;;;;;;;2.92;2.47;;;;;;;34.56;26.19;98261.00;4994756;28;20178;-63
2022/08/04 11:42:26;;;;;;;3.05;1.90;;;;;;;34.73;26.77;98256.25;4994690;28;20166;-62
2022/08/04 11:45:00;;;;;;;1.92;1.83;;;;;;;35.07;25.68;98262.88;4994761;28;20172;-62
2022/08/04 11:47:29;;;;;;;2.25;2.15;;;;;;;34.99;25.45;98260.69;4994347;28;20632;-63
2022/08/04 11:50:03;;;;;;;2.22;2.03;;;;;;;35.22;26.87;98257.53;4994647;28;20241;-62
2022/08/04 11:52:30;;;;;;;2.20;2.10;;;;;;;35.44;25.21;98252.75;4994635;28;20210;-62
2022/08/04 11:54:57;;;;;;;3.90;2.13;;;;;;;35.68;24.23;98253.03;4993336;28;20202;-62
2022/08/04 11:57:24;;;;;;;3.22;2.95;;;;;;;35.42;24.65;98237.94;4994499;28;20171;-63
2022/08/04 11:59:55;;;;;;;2.67;2.00;;;;;;;35.49;24.55;98241.19;4994129;28;20213;-62
2022/08/04 12:02:48;;;;;;;2.10;2.00;;;;;;;35.25;24.68;98234.69;4992961;28;20269;-62
2022/08/04 12:05:19;;;;;;;3.47;1.92;;;;;;;35.45;25.07;98230.16;4994364;28;20222;-62
2022/08/04 12:08:06;;;;;;;2.10;1.90;;;;;;;35.25;24.42;98227.41;4994036;28;20226;-62
2022/08/04 12:10:50;;;;;;;2.20;2.08;;;;;;;35.00;24.72;98221.97;4994257;28;20195;-63
2022/08/04 12:13:43;;;;;;;3.42;2.10;;;;;;;34.84;25.36;98222.97;4994309;28;20166;-63
2022/08/04 12:16:21;;;;;;;3.10;2.78;;;;;;;34.93;24.91;98229.47;4994226;28;20576;-62
2022/08/04 12:19:15;;;;;;;2.28;2.17;;;;;;;35.20;25.14;98222.00;4994055;28;20198;-62
2022/08/04 12:21:51;;;;;;;2.67;2.58;;;;;;;35.16;24.19;98207.47;4993826;28;20557;-62